Terminal Aerodrome Forecast
Issued by NWS

Home | Current Version | Previous Version | Graphics & Text | Print | Product List | Glossary On
Versions: 1 2 3 4 5 6 7 8 9 10 11 12 13 14
000
FTUS45 KGGW 132320
TAFGDV
TAF
KGDV 132320Z 1400/1424 11010KT P6SM SKC
     FM140800 10006KT P6SM FEW110
     FM141100 09006KT P6SM BKN130
     FM141400 12008KT P6SM VCSH BKN090=

USA.gov is the U.S. government's official web portal to all federal, state and local government web resources and services.